Terminal Aerodrome Forecast
Issued by NWS Sterling, VA

Home | Current Version | Previous Version | Text Only | Print | Product List | Glossary On
Versions: 1 2 3 4 5 6 7 8 9 10 11 12 13 14 15 16 17 18 19 20 21 22
993
FTUS41 KLWX 132329
TAFIAD
TAF
KIAD 132329Z 1400/1506 19007KT P6SM VCSH BKN050 OVC100
     FM140900 21009KT P6SM BKN050
     FM141200 26009KT P6SM SCT050 BKN080
     FM141300 29009KT P6SM SCT050
     FM141500 32013G21KT P6SM SCT040
     FM142200 32009KT P6SM FEW060 FEW200
     FM150200 35005KT P6SM SCT150=

USA.gov is the U.S. government's official web portal to all federal, state and local government web resources and services.